createdAt,value
2022-09-06T00:00:07.591Z,89.01
2022-09-06T00:05:14.788Z,90.09
2022-09-06T00:10:16.533Z,90.06
2022-09-06T00:15:18.356Z,90.28
2022-09-06T00:20:21.024Z,91.10
2022-09-06T00:25:22.596Z,90.65
2022-09-06T00:30:25.159Z,91.87
2022-09-06T00:35:27.656Z,92.40
2022-09-06T00:40:30.597Z,93.53
2022-09-06T00:45:33.334Z,93.46
2022-09-06T00:50:35.007Z,93.65
2022-09-06T00:55:36.635Z,93.61
2022-09-06T01:00:38.325Z,93.82
2022-09-06T01:06:09.948Z,93.45
2022-09-06T01:11:48.343Z,92.98
2022-09-06T01:17:15.218Z,93.81
2022-09-06T01:22:40.904Z,93.67
2022-09-06T01:28:04.148Z,95.22
2022-09-06T01:33:30.431Z,98.04
2022-09-06T01:38:32.038Z,99.14
2022-09-06T01:43:39.342Z,100.00
2022-09-06T01:49:19.264Z,100.00
2022-09-06T01:54:51.835Z,100.00
2022-09-06T02:00:11.828Z,100.00
2022-09-06T02:05:31.182Z,100.00
2022-09-06T02:10:54.968Z,100.00
2022-09-06T02:16:07.635Z,100.00
2022-09-06T02:21:13.068Z,100.00
2022-09-06T02:26:19.312Z,100.00
2022-09-06T02:31:27.746Z,100.00
2022-09-06T02:36:31.716Z,100.00
2022-09-06T02:41:34.038Z,100.00
2022-09-06T02:46:35.613Z,100.00
2022-09-06T02:51:40.529Z,100.00
2022-09-06T02:56:42.368Z,100.00
2022-09-06T03:01:44.148Z,100.00
2022-09-06T03:06:45.784Z,100.00
2022-09-06T03:11:47.326Z,100.00
2022-09-06T03:16:48.984Z,100.00
2022-09-06T03:21:50.616Z,100.00
2022-09-06T03:26:52.210Z,100.00
2022-09-06T03:31:53.781Z,100.00
2022-09-06T03:36:55.318Z,100.00
2022-09-06T03:41:56.893Z,100.00
2022-09-06T03:46:58.748Z,100.00
2022-09-06T03:52:00.347Z,100.00
2022-09-06T03:57:01.882Z,100.00
2022-09-06T04:02:03.881Z,100.00
2022-09-06T04:07:05.623Z,100.00
2022-09-06T04:12:07.421Z,100.00
2022-09-06T04:17:09.097Z,100.00
2022-09-06T04:22:10.643Z,100.00
2022-09-06T04:27:12.175Z,100.00
2022-09-06T04:32:13.902Z,100.00
2022-09-06T04:37:20.079Z,100.00
2022-09-06T04:42:21.638Z,100.00
2022-09-06T04:47:23.532Z,100.00
2022-09-06T04:52:29.964Z,100.00
2022-09-06T04:57:31.874Z,100.00
2022-09-06T05:02:33.584Z,100.00
2022-09-06T05:07:35.244Z,100.00
2022-09-06T05:12:38.837Z,100.00
2022-09-06T05:17:43.745Z,100.00
2022-09-06T05:22:52.520Z,100.00
2022-09-06T05:27:54.085Z,100.00
2022-09-06T05:32:55.644Z,100.00
2022-09-06T05:37:57.225Z,100.00
2022-09-06T05:42:59.017Z,100.00
2022-09-06T05:48:00.569Z,100.00
2022-09-06T05:53:02.315Z,100.00
2022-09-06T05:58:03.878Z,100.00
2022-09-06T06:03:05.451Z,100.00
2022-09-06T06:08:07.062Z,100.00
2022-09-06T06:13:11.375Z,100.00
2022-09-06T06:18:12.951Z,100.00
2022-09-06T06:23:15.408Z,100.00
2022-09-06T06:28:16.940Z,100.00
2022-09-06T06:33:18.548Z,100.00
2022-09-06T06:38:20.107Z,100.00
2022-09-06T06:43:21.678Z,100.00
2022-09-06T06:48:23.321Z,100.00
2022-09-06T06:53:28.409Z,100.00
2022-09-06T06:58:30.847Z,100.00
2022-09-06T07:03:32.429Z,100.00
2022-09-06T07:08:34.857Z,100.00
2022-09-06T07:13:36.862Z,100.00
2022-09-06T07:18:42.056Z,100.00
2022-09-06T07:34:22.655Z,100.00
2022-09-06T07:39:24.359Z,98.49
2022-09-06T07:44:26.534Z,98.10
2022-09-06T07:49:31.660Z,95.36
2022-09-06T07:54:35.695Z,93.46
2022-09-06T07:59:41.151Z,90.86
2022-09-06T08:04:47.554Z,89.84
2022-09-06T08:09:53.455Z,88.03
2022-09-06T08:14:59.685Z,87.58
2022-09-06T08:20:03.830Z,87.17
2022-09-06T08:25:06.032Z,87.53
2022-09-06T08:30:08.359Z,86.88
2022-09-06T08:35:10.458Z,86.14
2022-09-06T08:40:15.224Z,86.21
2022-09-06T08:45:23.247Z,86.07
2022-09-06T08:50:28.354Z,86.82
2022-09-06T08:55:39.350Z,87.05
2022-09-06T09:00:46.910Z,86.31
2022-09-06T09:05:52.651Z,84.76
2022-09-06T09:11:07.354Z,83.62
2022-09-06T09:16:08.997Z,84.53
2022-09-06T09:21:11.493Z,83.74
2022-09-06T09:26:15.352Z,83.06
2022-09-06T09:31:33.451Z,82.50
2022-09-06T09:36:35.743Z,81.59
2022-09-06T09:41:40.995Z,80.41
2022-09-06T09:46:42.681Z,80.03
2022-09-06T09:52:05.661Z,77.31
2022-09-06T09:57:11.909Z,76.94
2022-09-06T10:02:41.388Z,74.67
2022-09-06T10:07:47.324Z,74.52
2022-09-06T10:13:05.186Z,73.43
2022-09-06T10:18:16.880Z,71.40
2022-09-06T10:28:46.156Z,69.90
2022-09-06T10:33:50.763Z,70.74
2022-09-06T10:39:12.524Z,71.28
2022-09-06T10:44:38.648Z,71.31
2022-09-06T10:49:44.841Z,70.86
2022-09-06T10:54:47.399Z,70.62
2022-09-06T10:59:54.112Z,69.91
2022-09-06T11:12:12.591Z,69.07
2022-09-06T11:23:53.619Z,66.95
2022-09-06T11:28:59.236Z,67.62
2022-09-06T11:34:11.507Z,66.08
2022-09-06T11:39:14.939Z,65.50
2022-09-06T11:44:51.572Z,64.60
2022-09-06T11:49:53.198Z,63.58
2022-09-06T11:54:57.299Z,62.73
2022-09-06T12:07:11.765Z,59.42
2022-09-06T12:12:49.153Z,60.82
2022-09-06T12:18:54.499Z,60.72
2022-09-06T12:23:56.081Z,60.52
2022-09-06T12:28:58.232Z,60.32
2022-09-06T12:34:07.887Z,60.64
2022-09-06T12:39:14.398Z,60.83
2022-09-06T12:44:31.373Z,60.15
2022-09-06T12:49:33.654Z,60.91
2022-09-06T12:54:46.014Z,60.10
2022-09-06T13:00:04.044Z,59.82
2022-09-06T13:05:08.888Z,59.37
2022-09-06T13:10:15.047Z,58.61
2022-09-06T13:15:22.547Z,58.13
2022-09-06T13:20:28.666Z,57.92
2022-09-06T13:25:33.553Z,57.44
2022-09-06T13:30:49.519Z,57.44
2022-09-06T13:36:19.556Z,56.94
2022-09-06T13:41:41.231Z,56.51
2022-09-06T13:46:43.250Z,56.10
2022-09-06T13:51:44.859Z,55.71
2022-09-06T13:56:48.374Z,55.41
2022-09-06T14:01:56.977Z,54.60
2022-09-06T14:06:58.703Z,53.80
2022-09-06T14:12:00.954Z,54.12
2022-09-06T14:17:02.514Z,53.87
2022-09-06T14:22:05.605Z,52.79
2022-09-06T14:27:08.502Z,52.98
2022-09-06T14:32:10.094Z,53.13
2022-09-06T14:37:13.530Z,52.01
2022-09-06T14:42:15.321Z,51.06
2022-09-06T14:47:17.285Z,49.46
2022-09-06T14:52:18.959Z,49.65
2022-09-06T14:57:20.527Z,49.33
2022-09-06T15:02:22.249Z,48.48
2022-09-06T15:07:24.222Z,48.57
2022-09-06T15:12:25.943Z,48.95
2022-09-06T15:17:27.495Z,48.51
2022-09-06T15:22:29.059Z,48.35
2022-09-06T15:27:31.619Z,48.43
2022-09-06T15:32:33.599Z,48.69
2022-09-06T15:37:35.115Z,49.00
2022-09-06T15:42:36.866Z,49.02
2022-09-06T15:47:40.147Z,49.37
2022-09-06T15:52:41.717Z,49.19
2022-09-06T15:57:43.241Z,49.45
2022-09-06T16:02:44.920Z,48.97
2022-09-06T16:07:46.575Z,49.13
2022-09-06T16:12:50.590Z,49.51
2022-09-06T16:17:54.031Z,50.23
2022-09-06T16:22:55.566Z,49.59
2022-09-06T16:27:57.281Z,49.81
2022-09-06T16:32:59.247Z,50.19
2022-09-06T16:38:02.289Z,51.07
2022-09-06T16:43:04.042Z,51.31
2022-09-06T16:48:07.030Z,51.95
2022-09-06T16:53:08.554Z,52.96
2022-09-06T16:58:10.553Z,53.18
2022-09-06T17:03:14.931Z,53.54
2022-09-06T17:08:16.483Z,53.94
2022-09-06T17:13:18.031Z,54.21
2022-09-06T17:18:19.575Z,54.54
2022-09-06T17:23:27.306Z,54.94
2022-09-06T17:28:29.505Z,55.34
2022-09-06T17:33:32.086Z,55.62
2022-09-06T17:38:34.270Z,57.99
2022-09-06T17:43:36.822Z,59.88
2022-09-06T17:48:38.343Z,61.28
2022-09-06T17:53:41.253Z,61.86
2022-09-06T17:58:43.589Z,63.20
2022-09-06T18:03:51.277Z,65.62
2022-09-06T18:08:55.790Z,66.33
2022-09-06T18:20:26.781Z,69.19
2022-09-06T18:25:28.873Z,70.61
2022-09-06T18:30:30.411Z,71.63
2022-09-06T18:35:31.958Z,73.34
2022-09-06T18:40:33.506Z,74.38
2022-09-06T18:45:35.120Z,75.73
2022-09-06T18:50:38.898Z,77.56
2022-09-06T18:55:42.938Z,78.49
2022-09-06T19:00:44.495Z,78.98
2022-09-06T19:05:51.059Z,79.67
2022-09-06T19:11:18.932Z,81.14
2022-09-06T19:16:21.411Z,81.27
2022-09-06T19:21:27.844Z,82.20
2022-09-06T19:26:32.128Z,82.72
2022-09-06T19:31:39.294Z,82.84
2022-09-06T19:36:41.416Z,83.82
2022-09-06T19:41:45.098Z,84.39
2022-09-06T19:46:47.671Z,84.63
2022-09-06T19:51:50.782Z,85.15
2022-09-06T19:56:52.680Z,86.32
2022-09-06T20:01:54.329Z,86.57
2022-09-06T20:06:55.975Z,87.09
2022-09-06T20:11:57.571Z,88.24
2022-09-06T20:17:11.317Z,88.77
2022-09-06T20:22:20.937Z,88.49
2022-09-06T20:27:22.524Z,88.82
2022-09-06T20:32:24.065Z,88.74
2022-09-06T20:37:26.079Z,89.16
2022-09-06T20:42:27.619Z,89.67
2022-09-06T20:47:29.419Z,89.25
2022-09-06T20:52:31.288Z,91.11
2022-09-06T20:57:32.820Z,91.13
2022-09-06T21:02:34.371Z,91.77
2022-09-06T21:07:35.920Z,92.41
2022-09-06T21:12:37.476Z,93.41
2022-09-06T21:17:39.023Z,93.78
2022-09-06T21:22:40.563Z,93.81
2022-09-06T21:27:45.148Z,94.20
2022-09-06T21:32:46.700Z,94.78
2022-09-06T21:37:48.340Z,95.53
2022-09-06T21:42:49.871Z,95.21
2022-09-06T21:47:52.099Z,95.32
2022-09-06T21:52:53.875Z,95.54
2022-09-06T21:57:55.436Z,96.79
2022-09-06T22:02:57.176Z,97.23
2022-09-06T22:07:58.779Z,97.29
2022-09-06T22:13:00.340Z,98.01
2022-09-06T22:18:02.032Z,98.12
2022-09-06T22:23:08.511Z,98.42
2022-09-06T22:28:10.309Z,98.75
2022-09-06T22:33:11.868Z,99.49
2022-09-06T22:38:13.429Z,99.11
2022-09-06T22:43:15.555Z,99.46
2022-09-06T22:48:17.584Z,99.88
2022-09-06T22:53:20.861Z,100.00
2022-09-06T22:58:28.952Z,100.00
2022-09-06T23:03:30.637Z,100.00
2022-09-06T23:08:33.819Z,100.00
2022-09-06T23:13:35.445Z,100.00
2022-09-06T23:18:37.037Z,100.00
2022-09-06T23:23:39.601Z,100.00
2022-09-06T23:28:41.329Z,100.00
2022-09-06T23:33:43.668Z,100.00
2022-09-06T23:38:45.272Z,100.00
2022-09-06T23:43:46.994Z,100.00
2022-09-06T23:48:48.621Z,100.00
2022-09-06T23:53:50.223Z,100.00
2022-09-06T23:58:51.808Z,100.00
